Time;durP1;ratioP1;P1;durP2;ratioP2;P2;SDS_P1;SDS_P2;PMS_P1;PMS_P2;Temp;Humidity;BMP_temperature;BMP_pressure;BME280_temperature;BME280_humidity;BME280_pressure;Samples;Min_cycle;Max_cycle;Signal;HPM_P1;HPM_P2
2022/04/16 00:01:41;;;;;;;14.00;10.50;;;;;;;11.05;61.41;99386.78;232930;1220;139056;-61
2022/04/16 00:06:54;;;;;;;101.30;68.30;;;;;;;10.99;61.51;99392.43;232895;1220;139945;-58
2022/04/16 00:11:57;;;;;;;14.60;10.20;;;;;;;10.98;62.09;99389.70;232818;1220;139410;-57
2022/04/16 00:17:00;;;;;;;13.00;9.30;;;;;;;10.90;62.05;99390.99;232983;1221;139190;-58
2022/04/16 00:22:07;;;;;;;14.20;9.50;;;;;;;10.87;62.23;99388.00;232747;1220;140021;-55
2022/04/16 00:27:10;;;;;;;13.30;9.20;;;;;;;10.86;62.31;99385.20;232926;1220;139461;-59
2022/04/16 00:32:14;;;;;;;10.70;9.20;;;;;;;10.81;62.21;99384.23;232879;1220;140236;-59
2022/04/16 00:37:17;;;;;;;12.80;9.00;;;;;;;10.75;62.62;99385.13;232976;1219;139140;-59
2022/04/16 00:42:20;;;;;;;13.50;9.50;;;;;;;10.72;62.66;99385.86;232908;1220;138988;-58
2022/04/16 00:47:23;;;;;;;13.10;9.50;;;;;;;10.71;62.58;99386.83;232929;1220;139746;-60
2022/04/16 00:52:26;;;;;;;12.80;9.30;;;;;;;10.65;62.60;99387.30;232796;1220;139120;-59
2022/04/16 00:57:30;;;;;;;197.00;111.40;;;;;;;10.61;63.13;99389.98;232932;1220;138245;-59
2022/04/16 01:02:36;;;;;;;12.70;9.60;;;;;;;10.65;62.97;99394.59;233115;1220;140196;-58
2022/04/16 01:07:53;;;;;;;9.10;6.80;;;;;;;10.71;63.04;99398.85;232555;1220;139476;-61
2022/04/16 01:12:59;;;;;;;7.90;5.70;;;;;;;10.70;63.45;99406.55;232984;1220;138658;-59
2022/04/16 01:18:02;;;;;;;6.20;5.20;;;;;;;10.68;63.32;99405.04;233001;1220;138830;-60
2022/04/16 01:23:06;;;;;;;6.20;5.10;;;;;;;10.60;63.35;99410.98;233154;1220;138835;-59
2022/04/16 01:28:10;;;;;;;6.00;5.20;;;;;;;10.51;63.37;99410.63;233272;1220;139004;-61
2022/04/16 01:33:15;;;;;;;5.70;4.80;;;;;;;10.42;63.39;99413.40;233065;1220;139044;-58
2022/04/16 01:38:18;;;;;;;5.00;4.30;;;;;;;10.39;63.66;99413.95;233102;1220;140415;-61
2022/04/16 01:43:21;;;;;;;5.00;4.30;;;;;;;10.38;63.57;99417.53;233071;1220;139822;-58
2022/04/16 01:48:28;;;;;;;5.80;4.30;;;;;;;10.36;63.58;99422.10;232977;1220;138706;-57
2022/04/16 01:53:32;;;;;;;5.30;4.10;;;;;;;10.33;63.64;99425.61;233262;1220;138646;-58
2022/04/16 01:58:38;;;;;;;5.10;4.10;;;;;;;10.27;63.68;99431.63;233195;1220;138789;-59
2022/04/16 02:03:41;;;;;;;4.50;3.60;;;;;;;10.20;63.52;99429.33;232978;1220;138545;-59
2022/04/16 02:08:44;;;;;;;4.70;3.50;;;;;;;10.12;63.63;99427.48;232999;1220;138432;-56
2022/04/16 02:13:47;;;;;;;6.30;4.00;;;;;;;10.06;63.78;99425.30;233063;1220;138972;-58
2022/04/16 02:18:51;;;;;;;4.30;3.20;;;;;;;9.99;63.83;99423.16;232932;1220;138763;-60
2022/04/16 02:23:54;;;;;;;4.10;2.90;;;;;;;9.96;63.92;99424.77;232965;1220;139747;-59
2022/04/16 02:28:59;;;;;;;4.30;3.10;;;;;;;9.99;63.91;99431.14;233136;1220;139455;-62
2022/04/16 02:34:04;;;;;;;3.50;3.00;;;;;;;10.01;63.98;99432.14;233081;1220;162430;-57
2022/04/16 02:39:10;;;;;;;3.90;2.80;;;;;;;9.98;64.12;99434.61;233085;1220;138594;-59
2022/04/16 02:49:38;;;;;;;2.20;1.80;;;;;;;9.83;63.74;99442.64;232929;1220;138323;-55
2022/04/16 02:54:41;;;;;;;2.20;1.70;;;;;;;9.76;63.76;99446.02;233193;1220;138893;-60
2022/04/16 02:59:46;;;;;;;2.50;1.80;;;;;;;9.68;63.87;99452.44;232959;1220;138249;-58
2022/04/16 03:04:50;;;;;;;2.40;1.60;;;;;;;9.64;63.89;99455.49;232998;1220;138721;-59
2022/04/16 03:09:53;;;;;;;2.40;1.20;;;;;;;9.60;63.78;99461.56;233003;1220;139654;-57
2022/04/16 03:20:20;;;;;;;3.10;2.00;;;;;;;9.57;64.11;99465.44;233171;1220;138649;-58
2022/04/16 03:25:23;;;;;;;2.90;2.30;;;;;;;9.57;64.00;99471.27;232999;1220;138694;-60
2022/04/16 03:30:27;;;;;;;2.40;2.20;;;;;;;9.56;64.18;99479.09;232774;1221;138857;-59
2022/04/16 03:35:30;;;;;;;3.70;2.10;;;;;;;9.53;64.03;99488.33;233154;1220;138261;-59
2022/04/16 03:40:33;;;;;;;2.00;1.80;;;;;;;9.46;64.05;99493.25;233145;1219;139551;-60
2022/04/16 03:45:37;;;;;;;2.40;1.60;;;;;;;9.41;64.12;99504.48;233171;1220;138370;-60
2022/04/16 03:50:40;;;;;;;2.20;1.70;;;;;;;9.35;64.08;99508.48;233030;1220;138675;-61
2022/04/16 04:01:06;;;;;;;1.60;1.40;;;;;;;9.34;64.10;99518.64;233030;1220;138856;-59
2022/04/16 04:06:09;;;;;;;2.10;1.90;;;;;;;9.33;64.05;99526.83;233057;1220;139137;-58
2022/04/16 04:11:12;;;;;;;3.50;1.70;;;;;;;9.32;64.01;99535.77;233102;1220;138483;-61
2022/04/16 04:16:15;;;;;;;3.60;1.60;;;;;;;9.27;64.04;99545.39;232984;1220;139940;-60
2022/04/16 04:21:18;;;;;;;2.80;1.80;;;;;;;9.21;64.09;99547.78;232974;1220;138393;-60
2022/04/16 04:26:22;;;;;;;2.70;1.50;;;;;;;9.16;63.84;99550.31;233018;1219;138823;-58
2022/04/16 04:31:25;;;;;;;1.80;1.50;;;;;;;9.09;63.96;99558.98;233040;1220;138430;-56
2022/04/16 04:36:30;;;;;;;;;;;;;;;8.99;63.81;99567.05;233102;1220;139289;-60
2022/04/16 04:41:33;;;;;;;2.20;1.40;;;;;;;8.94;63.93;99577.73;233238;1220;125531;-61
2022/04/16 04:46:37;;;;;;;2.40;1.40;;;;;;;8.89;64.03;99590.17;232914;1220;138928;-61
2022/04/16 04:56:54;;;;;;;2.00;1.60;;;;;;;8.93;64.18;99606.27;230237;1234;635849;-56
2022/04/16 05:01:57;;;;;;;1.90;1.30;;;;;;;8.87;64.15;99612.21;232881;1222;137438;-62
2022/04/16 05:07:03;;;;;;;3.40;1.70;;;;;;;8.81;64.04;99619.39;233187;1223;137667;-61
2022/04/16 05:12:06;;;;;;;1.80;1.40;;;;;;;8.77;64.06;99632.82;232921;1223;137600;-59
2022/04/16 05:17:09;;;;;;;1.30;1.00;;;;;;;8.71;64.16;99640.52;233019;1222;137694;-60
2022/04/16 05:22:12;;;;;;;1.20;1.10;;;;;;;8.66;64.06;99644.11;232978;1223;137858;-59
2022/04/16 05:27:15;;;;;;;45.90;36.20;;;;;;;8.59;63.87;99656.46;233026;1222;138043;-62
2022/04/16 05:32:21;;;;;;;3.60;2.80;;;;;;;8.61;64.23;99660.11;232971;1222;139769;-61
2022/04/16 05:37:24;;;;;;;2.70;1.30;;;;;;;8.65;64.24;99664.88;232795;1222;138232;-63
2022/04/16 05:42:27;;;;;;;1.50;1.40;;;;;;;8.65;64.22;99673.35;232785;1221;137796;-60
2022/04/16 05:47:30;;;;;;;3.10;1.50;;;;;;;8.65;64.30;99680.41;232947;1222;138081;-63
2022/04/16 05:52:34;;;;;;;2.40;1.80;;;;;;;8.65;64.36;99684.66;232891;1222;138141;-57
2022/04/16 05:57:38;;;;;;;80.40;60.00;;;;;;;8.69;64.54;99683.62;232562;1223;138191;-58
2022/04/16 06:02:42;;;;;;;8.30;6.10;;;;;;;8.74;64.49;99691.67;232664;1222;138475;-59
2022/04/16 06:07:45;;;;;;;3.50;2.50;;;;;;;8.70;64.33;99697.54;232608;1223;138911;-59
2022/04/16 06:12:48;;;;;;;3.40;2.10;;;;;;;8.65;64.27;99703.08;232747;1223;138141;-61
2022/04/16 06:17:52;;;;;;;2.70;2.10;;;;;;;8.62;64.43;99711.88;232699;1221;138640;-60
2022/04/16 06:22:55;;;;;;;169.40;116.50;;;;;;;8.56;64.09;99717.45;233304;1219;139220;-62
2022/04/16 06:27:58;;;;;;;5.30;4.00;;;;;;;8.59;64.58;99724.39;233115;1220;138513;-63
2022/04/16 06:33:01;;;;;;;3.70;2.90;;;;;;;8.63;64.56;99725.28;233254;1219;138414;-62
2022/04/16 06:38:05;;;;;;;3.80;3.10;;;;;;;8.62;64.34;99728.83;233421;1219;138464;-56
2022/04/16 06:43:08;;;;;;;3.60;2.90;;;;;;;8.61;64.32;99732.94;233371;1219;138025;-60
2022/04/16 06:48:14;;;;;;;3.80;3.30;;;;;;;8.55;64.21;99735.33;233169;1219;137980;-59
2022/04/16 06:53:17;;;;;;;22.60;17.70;;;;;;;8.50;64.39;99745.65;233391;1220;137666;-59
2022/04/16 06:58:20;;;;;;;4.50;3.60;;;;;;;8.50;64.57;99746.69;233075;1220;138544;-60
2022/04/16 07:03:23;;;;;;;3.90;2.70;;;;;;;8.47;64.45;99757.77;233193;1220;138372;-58
2022/04/16 07:08:26;;;;;;;2.90;1.90;;;;;;;8.44;64.40;99756.86;233156;1220;138325;-57
2022/04/16 07:13:30;;;;;;;3.50;2.40;;;;;;;8.42;64.56;99763.80;233318;1219;138202;-64
2022/04/16 07:18:34;;;;;;;4.00;2.60;;;;;;;8.44;64.57;99768.15;232924;1220;137908;-62
2022/04/16 07:23:37;;;;;;;4.10;2.50;;;;;;;8.44;64.59;99774.88;233293;1220;138325;-61
2022/04/16 07:28:40;;;;;;;4.80;3.20;;;;;;;8.41;64.28;99779.95;233168;1219;138229;-61
2022/04/16 07:33:44;;;;;;;4.10;3.40;;;;;;;8.38;64.52;99791.75;233348;1219;137953;-59
2022/04/16 07:38:47;;;;;;;5.90;4.50;;;;;;;8.32;64.32;99802.20;233286;1220;138108;-58
2022/04/16 07:43:50;;;;;;;10.70;6.80;;;;;;;8.28;64.49;99807.48;232990;1220;137699;-60
2022/04/16 07:48:54;;;;;;;7.80;5.50;;;;;;;8.26;64.44;99812.55;233290;1219;138815;-57
2022/04/16 07:53:58;;;;;;;13.70;8.80;;;;;;;8.26;64.39;99820.15;233249;1219;138969;-60
2022/04/16 07:59:02;;;;;;;7.60;5.20;;;;;;;8.30;64.46;99823.30;233396;1220;138724;-60
2022/04/16 08:04:05;;;;;;;142.10;99.10;;;;;;;8.32;64.38;99830.34;233171;1220;138424;-62
2022/04/16 08:09:08;;;;;;;7.70;6.00;;;;;;;8.40;64.56;99833.73;232999;1220;138322;-64
2022/04/16 08:14:12;;;;;;;7.20;5.90;;;;;;;8.37;64.15;99841.98;233135;1220;139636;-61
2022/04/16 08:19:15;;;;;;;6.80;5.80;;;;;;;8.28;64.09;99844.09;233147;1220;138403;-61
2022/04/16 08:29:33;;;;;;;19.50;13.10;;;;;;;8.22;64.61;99855.81;233346;1219;138673;-61
2022/04/16 08:34:37;;;;;;;9.60;6.40;;;;;;;8.21;64.39;99860.80;233252;1219;138550;-60
2022/04/16 08:39:40;;;;;;;7.70;5.50;;;;;;;8.16;64.03;99859.95;233092;1220;139369;-59
2022/04/16 08:44:44;;;;;;;9.20;5.50;;;;;;;8.10;64.08;99866.36;233180;1218;138536;-61
2022/04/16 08:49:47;;;;;;;7.20;5.50;;;;;;;8.06;64.03;99876.95;233250;1219;138252;-62
2022/04/16 08:54:50;;;;;;;6.50;5.20;;;;;;;8.05;64.05;99877.16;233226;1220;138638;-63
2022/04/16 08:59:57;;;;;;;;;;;;;;;8.01;64.10;99883.85;233153;1220;138335;-61
2022/04/16 09:05:09;;;;;;;5.80;5.10;;;;;;;7.98;64.17;99885.20;233410;1219;124426;-64
2022/04/16 09:10:14;;;;;;;5.10;4.40;;;;;;;8.02;64.01;99886.13;233357;1219;138501;-65
2022/04/16 09:15:18;;;;;;;5.00;4.20;;;;;;;8.03;63.80;99888.02;232970;1220;137967;-63
2022/04/16 09:20:21;;;;;;;5.50;4.30;;;;;;;8.10;63.82;99887.40;233329;1219;139851;-63
2022/04/16 09:25:29;;;;;;;7.00;4.60;;;;;;;8.17;63.77;99888.73;233118;1220;137933;-64
2022/04/16 09:30:34;;;;;;;4.90;3.90;;;;;;;8.26;63.73;99890.69;233171;1219;138386;-62
2022/04/16 09:35:38;;;;;;;5.10;3.70;;;;;;;8.39;63.71;99893.38;233199;1220;139945;-62
2022/04/16 09:40:47;;;;;;;2.90;1.90;;;;;;;8.71;65.29;99894.91;233157;1220;137951;-62
2022/04/16 09:45:50;;;;;;;3.40;2.60;;;;;;;10.89;69.88;99894.43;233155;1218;137999;-62
2022/04/16 09:50:56;;;;;;;3.70;2.70;;;;;;;12.76;67.43;99892.70;233233;1219;138491;-64
2022/04/16 09:56:01;;;;;;;157.00;122.80;;;;;;;13.93;64.51;99894.48;233217;1220;139550;-60
2022/04/16 10:01:10;;;;;;;13.50;6.40;;;;;;;14.23;61.52;99899.42;233036;1220;139317;-61
2022/04/16 10:06:20;;;;;;;9.30;4.80;;;;;;;14.48;60.34;99903.02;233177;1220;140514;-59
2022/04/16 10:17:23;;;;;;;3.90;3.30;;;;;;;14.28;57.24;99922.10;233289;1220;138622;-60
2022/04/16 10:22:27;;;;;;;;;;;;;;;13.17;54.93;99933.15;233363;1219;139448;-57
2022/04/16 10:27:32;;;;;;;4.20;3.20;;;;;;;12.22;55.30;99936.14;233194;1220;124899;-58
2022/04/16 10:32:39;;;;;;;4.20;2.90;;;;;;;11.54;55.29;99939.52;233239;1218;138451;-57
2022/04/16 10:37:45;;;;;;;4.10;3.00;;;;;;;11.16;55.70;99944.52;233296;1220;138269;-58
2022/04/16 10:42:50;;;;;;;3.50;2.80;;;;;;;10.90;56.11;99947.39;233158;1220;138421;-58
2022/04/16 10:47:57;;;;;;;4.60;3.00;;;;;;;10.67;56.06;99952.20;233399;1220;138822;-57
2022/04/16 10:53:02;;;;;;;4.60;3.20;;;;;;;10.60;56.35;99943.30;233434;1220;138587;-59
2022/04/16 10:58:06;;;;;;;37.60;14.00;;;;;;;10.73;56.73;99947.50;233296;1220;140513;-58
2022/04/16 11:03:34;;;;;;;6.50;3.80;;;;;;;10.93;56.55;99946.34;233259;1219;138452;-58
2022/04/16 11:08:41;;;;;;;55.80;42.00;;;;;;;11.04;56.56;99948.27;233100;1220;139400;-56
2022/04/16 11:13:45;;;;;;;5.60;3.90;;;;;;;11.16;56.39;99953.04;232594;1220;138961;-59
2022/04/16 11:18:48;;;;;;;5.80;2.80;;;;;;;11.13;55.88;99951.38;233156;1219;138410;-58
2022/04/16 11:23:53;;;;;;;5.30;2.60;;;;;;;11.10;55.75;99952.09;233201;1219;138601;-58
2022/04/16 11:34:20;;;;;;;3.60;2.20;;;;;;;11.69;56.04;99945.55;233062;1220;138089;-58
2022/04/16 11:39:28;;;;;;;3.10;2.00;;;;;;;12.13;55.54;99941.95;233089;1220;138245;-57
2022/04/16 11:44:38;;;;;;;2.50;2.00;;;;;;;12.31;54.32;99948.15;232884;1220;138631;-57
2022/04/16 11:49:48;;;;;;;3.00;2.20;;;;;;;12.07;53.29;99955.10;232896;1220;138695;-57
2022/04/16 11:55:29;;;;;;;151.40;88.80;;;;;;;11.80;53.09;99957.75;233043;1220;138360;-57
2022/04/16 12:00:32;;;;;;;10.80;6.00;;;;;;;11.93;53.73;99955.15;232558;1220;138818;-57
2022/04/16 12:05:36;;;;;;;5.50;2.70;;;;;;;11.86;53.11;99959.41;233219;1219;138475;-59
2022/04/16 12:10:44;;;;;;;2.30;1.90;;;;;;;11.81;52.47;99965.20;233287;1218;138384;-58
2022/04/16 12:15:49;;;;;;;2.40;1.60;;;;;;;11.68;51.82;99969.04;233097;1220;138525;-56
2022/04/16 12:20:52;;;;;;;3.80;1.50;;;;;;;11.87;52.37;99963.63;233154;1220;138231;-57
2022/04/16 12:26:06;;;;;;;3.70;1.40;;;;;;;12.39;51.98;99964.20;233148;1219;139084;-57
2022/04/16 12:31:12;;;;;;;3.30;2.30;;;;;;;12.46;51.11;99967.20;233266;1219;138255;-57
2022/04/16 12:36:15;;;;;;;2.50;1.20;;;;;;;12.24;50.52;99972.33;233193;1220;139819;-56
2022/04/16 12:41:22;;;;;;;1.90;1.40;;;;;;;12.01;49.91;99979.26;233303;1220;138205;-57
2022/04/16 12:46:25;;;;;;;3.00;1.40;;;;;;;11.84;49.61;99989.05;233221;1220;138500;-57
2022/04/16 12:51:28;;;;;;;2.10;1.40;;;;;;;11.71;49.66;99996.79;233097;1219;138257;-56
2022/04/16 12:56:32;;;;;;;34.10;20.30;;;;;;;11.61;49.80;100001.02;233166;1219;138854;-57
2022/04/16 13:01:35;;;;;;;320.90;192.40;;;;;;;11.54;50.14;100003.33;233282;1219;139468;-58
2022/04/16 13:06:38;;;;;;;18.00;8.50;;;;;;;11.64;50.06;100004.45;233178;1220;139250;-57
2022/04/16 13:11:42;;;;;;;6.90;3.30;;;;;;;11.68;49.95;100009.94;233240;1219;138764;-55
2022/04/16 13:16:47;;;;;;;2.30;1.60;;;;;;;11.59;49.21;100001.86;233191;1219;138865;-57
2022/04/16 13:21:52;;;;;;;2.60;1.60;;;;;;;11.51;49.25;100006.37;233060;1219;138995;-57
2022/04/16 13:26:55;;;;;;;3.00;1.60;;;;;;;11.40;49.26;100010.44;233165;1219;138703;-57
2022/04/16 13:31:59;;;;;;;2.30;1.50;;;;;;;11.29;48.98;100007.96;233075;1220;141442;-57
2022/04/16 13:37:07;;;;;;;2.40;1.40;;;;;;;11.26;48.70;100009.55;232765;1219;139171;-57
2022/04/16 13:42:11;;;;;;;2.00;1.40;;;;;;;11.36;48.70;100007.65;233223;1220;139360;-57
2022/04/16 13:47:14;;;;;;;2.60;1.50;;;;;;;11.40;48.60;100006.74;233203;1219;139117;-57
2022/04/16 13:52:17;;;;;;;2.50;1.50;;;;;;;11.37;48.48;100008.64;233135;1219;139434;-57
2022/04/16 13:57:21;;;;;;;2.50;1.40;;;;;;;11.36;48.32;100007.07;233080;1220;139546;-58
2022/04/16 14:02:24;;;;;;;2.10;1.50;;;;;;;11.37;48.01;100006.72;233056;1220;139095;-56
2022/04/16 14:07:27;;;;;;;69.20;53.00;;;;;;;11.26;47.74;100011.68;233029;1218;138511;-57
2022/04/16 14:12:30;;;;;;;12.00;7.10;;;;;;;11.34;48.32;100015.90;232662;1219;138990;-57
2022/04/16 14:17:33;;;;;;;3.20;2.10;;;;;;;11.45;48.22;100016.05;233278;1219;138745;-60
2022/04/16 14:22:37;;;;;;;3.10;1.80;;;;;;;11.43;47.97;100020.77;233499;1217;139361;-59
2022/04/16 14:27:40;;;;;;;2.40;1.70;;;;;;;11.43;47.65;100015.83;233181;1217;138839;-56
2022/04/16 14:32:43;;;;;;;3.40;1.70;;;;;;;11.33;47.22;100022.49;233288;1217;138745;-55
2022/04/16 14:37:46;;;;;;;1.80;1.50;;;;;;;11.23;47.05;100020.75;233426;1217;139492;-56
2022/04/16 14:42:50;;;;;;;2.50;1.70;;;;;;;11.11;46.65;100021.83;233299;1217;138452;-57
2022/04/16 14:47:54;;;;;;;1.50;1.10;;;;;;;11.07;46.56;100020.61;233225;1217;138555;-56
2022/04/16 14:52:57;;;;;;;2.80;1.60;;;;;;;11.01;46.72;100024.08;233563;1217;138568;-56
2022/04/16 14:58:00;;;;;;;2.20;1.50;;;;;;;10.93;46.48;100031.05;233349;1217;139275;-58
2022/04/16 15:03:03;;;;;;;2.70;1.40;;;;;;;10.81;46.26;100033.92;233510;1217;138802;-57
2022/04/16 15:08:07;;;;;;;2.00;1.30;;;;;;;10.74;46.43;100042.77;233381;1217;138925;-56
2022/04/16 15:13:10;;;;;;;67.20;49.20;;;;;;;10.68;46.40;100039.15;233324;1217;138968;-55
2022/04/16 15:18:13;;;;;;;9.10;5.80;;;;;;;10.68;46.81;100039.86;233357;1217;139549;-56
2022/04/16 15:23:17;;;;;;;5.10;2.40;;;;;;;10.71;46.44;100045.05;233562;1217;138559;-57
2022/04/16 15:28:21;;;;;;;4.20;1.80;;;;;;;10.64;45.90;100046.95;233309;1217;139312;-60
2022/04/16 15:33:24;;;;;;;3.00;1.80;;;;;;;10.56;46.11;100046.59;233423;1217;138790;-55
2022/04/16 15:38:29;;;;;;;3.30;2.00;;;;;;;10.56;46.30;100049.99;233348;1217;140688;-58
2022/04/16 15:43:32;;;;;;;3.00;1.80;;;;;;;10.54;46.00;100049.89;233292;1217;139012;-58
2022/04/16 15:48:35;;;;;;;3.10;1.80;;;;;;;10.53;45.97;100052.63;233386;1217;138419;-55
2022/04/16 15:53:40;;;;;;;3.90;1.90;;;;;;;10.51;45.81;100051.96;233353;1217;138596;-57
2022/04/16 15:58:44;;;;;;;2.80;1.70;;;;;;;10.45;45.65;100057.95;233269;1216;138666;-57
2022/04/16 16:03:48;;;;;;;3.20;1.70;;;;;;;10.43;45.78;100062.11;233209;1215;139136;-58
2022/04/16 16:08:51;;;;;;;3.90;2.40;;;;;;;10.42;46.07;100071.16;233385;1217;139139;-59
2022/04/16 16:13:55;;;;;;;65.50;44.90;;;;;;;10.40;45.67;100073.77;233417;1217;138761;-59
2022/04/16 16:18:59;;;;;;;6.20;2.90;;;;;;;10.44;45.83;100080.50;233280;1217;139308;-57
2022/04/16 16:24:03;;;;;;;4.50;2.30;;;;;;;10.40;45.22;100081.04;233365;1217;139058;-59
2022/04/16 16:29:06;;;;;;;2.30;1.70;;;;;;;10.31;45.09;100086.23;233269;1217;138916;-57
2022/04/16 16:34:10;;;;;;;1.90;1.60;;;;;;;10.23;45.09;100087.07;233361;1217;139394;-58
2022/04/16 16:39:15;;;;;;;2.60;1.70;;;;;;;10.12;45.10;100088.64;233288;1217;138574;-59
2022/04/16 16:44:21;;;;;;;3.20;2.00;;;;;;;10.07;45.48;100093.64;233410;1217;139494;-58
2022/04/16 16:49:24;;;;;;;3.70;2.40;;;;;;;10.03;45.37;100095.74;233327;1217;138680;-59
2022/04/16 16:54:28;;;;;;;3.50;2.30;;;;;;;9.98;45.50;100102.89;233149;1216;138757;-58
2022/04/16 16:59:31;;;;;;;4.60;2.20;;;;;;;9.92;45.23;100106.67;233535;1217;138375;-59
2022/04/16 17:09:56;;;;;;;4.60;2.80;;;;;;;9.83;45.18;100118.23;233378;1217;139470;-59
2022/04/16 17:20:21;;;;;;;24.90;16.10;;;;;;;9.80;45.79;100128.63;233311;1217;139369;-58
2022/04/16 17:25:24;;;;;;;6.60;4.00;;;;;;;9.92;45.84;100136.45;233244;1217;139802;-59
2022/04/16 17:30:29;;;;;;;5.90;3.50;;;;;;;9.88;45.71;100140.88;233228;1217;138354;-58
2022/04/16 17:35:33;;;;;;;6.70;3.50;;;;;;;9.80;45.54;100141.55;233492;1217;138820;-58
2022/04/16 17:40:36;;;;;;;5.10;2.90;;;;;;;9.74;45.51;100146.25;233351;1215;138183;-56
2022/04/16 17:45:39;;;;;;;10.40;2.90;;;;;;;9.68;45.56;100153.55;232868;1217;138640;-57
2022/04/16 17:50:43;;;;;;;49.70;31.70;;;;;;;9.68;46.08;100159.94;233166;1217;138865;-57
2022/04/16 17:55:46;;;;;;;9.00;5.20;;;;;;;9.80;46.21;100164.80;233231;1219;139283;-58
2022/04/16 18:00:49;;;;;;;6.20;3.60;;;;;;;9.76;46.09;100171.67;232683;1218;138864;-56
2022/04/16 18:05:53;;;;;;;7.10;4.10;;;;;;;9.67;46.25;100177.87;233443;1217;138487;-58
2022/04/16 18:10:56;;;;;;;10.30;3.60;;;;;;;9.60;46.16;100182.60;233190;1217;139250;-58
2022/04/16 18:15:59;;;;;;;7.90;3.60;;;;;;;9.52;46.44;100186.63;233259;1219;139505;-57
2022/04/16 18:21:03;;;;;;;9.20;4.10;;;;;;;9.47;46.56;100188.77;233137;1217;139189;-56
2022/04/16 18:26:06;;;;;;;9.20;4.20;;;;;;;9.42;46.62;100194.80;233302;1217;139192;-58
2022/04/16 18:31:09;;;;;;;311.50;211.20;;;;;;;9.40;46.63;100197.36;233219;1217;139429;-55
2022/04/16 18:36:13;;;;;;;17.80;10.80;;;;;;;9.47;47.00;100201.88;233211;1217;142366;-56
2022/04/16 18:41:16;;;;;;;8.20;5.20;;;;;;;9.47;46.86;100206.64;233185;1219;140053;-57
2022/04/16 18:46:19;;;;;;;9.50;4.90;;;;;;;9.46;46.50;100209.16;233346;1218;139210;-57
2022/04/16 18:51:23;;;;;;;12.00;5.10;;;;;;;9.43;46.83;100209.84;232438;1219;139550;-54
2022/04/16 18:56:26;;;;;;;11.60;5.00;;;;;;;9.35;47.11;100208.38;233168;1219;141189;-55
2022/04/16 19:06:52;;;;;;;8.30;4.70;;;;;;;9.20;47.38;100208.39;233279;1217;140324;-57
2022/04/16 19:12:02;;;;;;;9.40;4.40;;;;;;;9.14;47.62;100213.39;233393;1217;139170;-57
2022/04/16 19:17:13;;;;;;;12.30;6.60;;;;;;;9.08;47.66;100217.86;233120;1217;138436;-56
2022/04/16 19:22:19;;;;;;;13.00;6.70;;;;;;;9.04;47.51;100220.70;233139;1217;138842;-57
2022/04/16 19:27:22;;;;;;;13.20;6.10;;;;;;;9.03;47.85;100217.02;233302;1217;138533;-59
2022/04/16 19:32:25;;;;;;;13.50;6.50;;;;;;;8.98;48.05;100218.95;233186;1217;138084;-58
2022/04/16 19:37:29;;;;;;;164.10;125.20;;;;;;;9.05;49.44;100218.90;233300;1217;138450;-59
2022/04/16 19:42:33;;;;;;;114.80;78.00;;;;;;;10.02;49.79;100216.71;233275;1217;138862;-59
2022/04/16 19:47:36;;;;;;;18.80;10.40;;;;;;;9.87;48.41;100217.66;233572;1215;139280;-60
2022/04/16 19:52:39;;;;;;;13.30;7.40;;;;;;;9.59;48.03;100216.48;233308;1217;140332;-58
2022/04/16 19:57:44;;;;;;;13.80;7.80;;;;;;;9.32;48.09;100219.80;233399;1217;139014;-59
2022/04/16 20:02:48;;;;;;;14.60;7.20;;;;;;;9.13;48.27;100220.17;233298;1217;138591;-61
2022/04/16 20:07:51;;;;;;;11.50;6.90;;;;;;;9.00;48.50;100222.77;233265;1217;138663;-62
2022/04/16 20:12:55;;;;;;;12.70;7.00;;;;;;;8.93;48.55;100221.96;233255;1217;138273;-62
2022/04/16 20:17:59;;;;;;;12.70;6.90;;;;;;;8.87;48.73;100229.44;233375;1217;140287;-61
2022/04/16 20:23:06;;;;;;;13.60;7.10;;;;;;;8.84;48.82;100229.03;232787;1217;140561;-60
2022/04/16 20:28:10;;;;;;;14.30;7.80;;;;;;;8.82;49.00;100229.98;233282;1217;138313;-61
2022/04/16 20:33:13;;;;;;;14.90;7.50;;;;;;;8.80;48.99;100228.11;233231;1217;138735;-59
2022/04/16 20:38:16;;;;;;;16.50;9.90;;;;;;;8.78;49.17;100221.98;233248;1219;138782;-60
2022/04/16 20:48:41;;;;;;;18.20;9.30;;;;;;;8.65;49.45;100219.60;233255;1217;138511;-62
2022/04/16 20:53:44;;;;;;;21.70;10.40;;;;;;;8.62;49.57;100221.67;233258;1217;138260;-62
2022/04/16 20:58:49;;;;;;;23.20;11.20;;;;;;;8.57;49.79;100220.24;233317;1219;138977;-62
2022/04/16 21:03:52;;;;;;;24.70;11.50;;;;;;;8.54;49.76;100219.29;233460;1217;138914;-62
2022/04/16 21:08:57;;;;;;;18.60;10.50;;;;;;;8.49;49.96;100218.02;233454;1217;138887;-60
2022/04/16 21:14:01;;;;;;;23.20;11.60;;;;;;;8.46;50.17;100216.38;233344;1217;138930;-61
2022/04/16 21:19:07;;;;;;;19.30;11.50;;;;;;;8.41;50.17;100216.88;233349;1217;139069;-62
2022/04/16 21:24:10;;;;;;;21.10;10.70;;;;;;;8.37;50.17;100222.48;232691;1216;139250;-62
2022/04/16 21:29:13;;;;;;;19.50;11.00;;;;;;;8.34;50.23;100219.41;233577;1217;139435;-61
2022/04/16 21:34:16;;;;;;;21.60;11.10;;;;;;;8.33;50.12;100222.98;233431;1217;138552;-63
2022/04/16 21:39:19;;;;;;;19.20;10.40;;;;;;;8.33;50.24;100221.21;233334;1217;139591;-63
2022/04/16 21:44:23;;;;;;;19.60;10.20;;;;;;;8.30;50.17;100220.60;233421;1217;139206;-61
2022/04/16 21:49:29;;;;;;;18.60;9.70;;;;;;;8.25;50.25;100217.23;233396;1217;138929;-60
2022/04/16 21:54:32;;;;;;;16.50;9.30;;;;;;;8.20;50.37;100220.73;233483;1217;138251;-59
2022/04/16 21:59:35;;;;;;;17.60;9.10;;;;;;;8.17;50.29;100221.39;233479;1217;139293;-57
2022/04/16 22:04:38;;;;;;;19.30;10.30;;;;;;;8.14;50.44;100221.30;233586;1217;138211;-60
2022/04/16 22:09:41;;;;;;;22.20;10.70;;;;;;;8.11;50.49;100225.30;233554;1217;139078;-58
2022/04/16 22:14:44;;;;;;;18.40;10.70;;;;;;;8.10;50.89;100223.38;233419;1217;138853;-60
2022/04/16 22:19:53;;;;;;;19.30;11.10;;;;;;;8.09;50.75;100221.83;233568;1217;138404;-61
2022/04/16 22:24:56;;;;;;;19.60;10.40;;;;;;;8.05;50.78;100220.70;233569;1217;138983;-60
2022/04/16 22:29:59;;;;;;;19.80;10.80;;;;;;;8.00;51.05;100218.05;233455;1217;138577;-60
2022/04/16 22:35:03;;;;;;;20.20;10.40;;;;;;;7.96;50.96;100222.60;233244;1217;138737;-58
2022/04/16 22:45:28;;;;;;;21.50;11.80;;;;;;;7.93;51.17;100220.25;233443;1217;138570;-58
2022/04/16 22:50:32;;;;;;;24.70;11.70;;;;;;;7.91;51.17;100221.34;233339;1217;138902;-61
2022/04/16 22:55:35;;;;;;;20.90;11.50;;;;;;;7.90;51.41;100212.01;233379;1217;138739;-61
2022/04/16 23:00:45;;;;;;;21.30;11.40;;;;;;;7.90;51.01;100208.48;233221;1217;138690;-61
2022/04/16 23:05:49;;;;;;;21.80;11.40;;;;;;;7.87;51.07;100201.54;233538;1217;138122;-60
2022/04/16 23:10:53;;;;;;;19.10;10.90;;;;;;;7.83;51.14;100199.17;232981;1217;138220;-58
2022/04/16 23:21:18;;;;;;;20.20;10.70;;;;;;;7.80;51.16;100195.38;233458;1217;139010;-59
2022/04/16 23:26:21;;;;;;;18.40;10.50;;;;;;;7.75;51.16;100193.59;233409;1217;139370;-60
2022/04/16 23:31:25;;;;;;;18.10;9.90;;;;;;;7.71;51.03;100195.14;233357;1217;138387;-60
2022/04/16 23:36:28;;;;;;;22.30;10.30;;;;;;;7.62;51.49;100193.64;233161;1217;138380;-62
2022/04/16 23:41:31;;;;;;;19.70;9.90;;;;;;;7.56;51.39;100192.59;233600;1217;138519;-61
2022/04/16 23:51:55;;;;;;;15.70;9.60;;;;;;;7.51;51.31;100188.86;233350;1216;138183;-61
2022/04/16 23:56:58;;;;;;;18.60;10.30;;;;;;;7.46;51.76;100187.46;233404;1217;138512;-61
